createdAt,value
2022-08-24T00:00:39.236Z,72.87
2022-08-24T00:03:07.502Z,72.87
2022-08-24T00:05:36.644Z,73.15
2022-08-24T00:08:03.917Z,73.50
2022-08-24T00:10:30.568Z,73.81
2022-08-24T00:12:57.963Z,73.95
2022-08-24T00:15:24.848Z,74.00
2022-08-24T00:17:54.370Z,74.14
2022-08-24T00:20:23.449Z,74.28
2022-08-24T00:22:49.929Z,74.28
2022-08-24T00:25:17.870Z,74.52
2022-08-24T00:27:47.065Z,74.79
2022-08-24T00:30:15.852Z,74.53
2022-08-24T00:35:13.684Z,75.03
2022-08-24T00:37:41.243Z,74.84
2022-08-24T00:40:13.780Z,75.32
2022-08-24T00:42:41.350Z,75.07
2022-08-24T00:45:10.808Z,75.24
2022-08-24T00:47:51.600Z,75.16
2022-08-24T00:50:24.332Z,75.55
2022-08-24T00:52:58.083Z,75.18
2022-08-24T00:55:36.659Z,75.27
2022-08-24T00:58:15.577Z,75.41
2022-08-24T01:00:48.785Z,75.77
2022-08-24T01:03:18.382Z,75.52
2022-08-24T01:05:46.052Z,75.92
2022-08-24T01:08:14.098Z,76.17
2022-08-24T01:10:49.846Z,76.37
2022-08-24T01:13:16.705Z,76.40
2022-08-24T01:15:47.782Z,76.39
2022-08-24T01:18:42.626Z,76.61
2022-08-24T01:21:38.041Z,76.27
2022-08-24T01:24:12.992Z,76.72
2022-08-24T01:26:45.874Z,76.67
2022-08-24T01:29:24.452Z,76.83
2022-08-24T01:31:52.699Z,76.78
2022-08-24T01:34:21.992Z,76.63
2022-08-24T01:36:51.601Z,76.87
2022-08-24T01:39:26.733Z,76.49
2022-08-24T01:41:54.150Z,76.62
2022-08-24T01:44:24.939Z,76.79
2022-08-24T01:46:54.108Z,76.45
2022-08-24T01:49:28.714Z,76.84
2022-08-24T01:51:55.677Z,77.17
2022-08-24T01:54:25.406Z,76.90
2022-08-24T01:56:52.223Z,76.94
2022-08-24T01:59:20.287Z,76.68
2022-08-24T02:01:52.214Z,76.89
2022-08-24T02:04:18.966Z,77.39
2022-08-24T02:06:48.081Z,77.31
2022-08-24T02:09:16.851Z,77.16
2022-08-24T02:11:48.273Z,77.46
2022-08-24T02:14:14.878Z,77.71
2022-08-24T02:16:42.049Z,78.16
2022-08-24T02:19:08.692Z,78.07
2022-08-24T02:21:40.111Z,78.18
2022-08-24T02:24:07.402Z,78.12
2022-08-24T02:26:36.085Z,78.21
2022-08-24T02:29:04.857Z,78.25
2022-08-24T02:31:31.478Z,78.09
2022-08-24T02:33:58.180Z,78.09
2022-08-24T02:36:26.005Z,78.11
2022-08-24T02:38:58.441Z,77.86
2022-08-24T02:41:25.757Z,78.09
2022-08-24T02:43:53.605Z,78.12
2022-08-24T02:46:22.958Z,78.35
2022-08-24T02:48:58.106Z,78.28
2022-08-24T02:51:44.108Z,78.69
2022-08-24T02:54:14.059Z,78.51
2022-08-24T02:56:43.928Z,78.65
2022-08-24T02:59:12.637Z,78.81
2022-08-24T03:01:39.581Z,79.28
2022-08-24T03:04:06.310Z,79.08
2022-08-24T03:06:33.587Z,79.35
2022-08-24T03:09:02.336Z,79.41
2022-08-24T03:11:29.016Z,79.80
2022-08-24T03:13:59.189Z,79.81
2022-08-24T03:16:27.334Z,80.05
2022-08-24T03:18:54.024Z,80.13
2022-08-24T03:21:23.720Z,80.19
2022-08-24T03:23:50.390Z,80.34
2022-08-24T03:26:17.167Z,80.43
2022-08-24T03:28:44.503Z,80.21
2022-08-24T03:31:12.427Z,80.15
2022-08-24T03:33:39.094Z,79.98
2022-08-24T03:36:06.222Z,79.75
2022-08-24T03:38:32.812Z,79.66
2022-08-24T03:40:59.374Z,80.03
2022-08-24T03:43:44.976Z,80.08
2022-08-24T03:46:12.443Z,79.81
2022-08-24T03:48:44.280Z,79.85
2022-08-24T03:51:13.105Z,79.80
2022-08-24T03:53:42.470Z,80.35
2022-08-24T03:56:11.085Z,80.54
2022-08-24T03:58:41.691Z,80.19
2022-08-24T04:01:09.260Z,80.36
2022-08-24T04:03:38.424Z,80.48
2022-08-24T04:06:05.751Z,80.64
2022-08-24T04:08:35.053Z,80.91
2022-08-24T04:11:02.632Z,80.73
2022-08-24T04:13:32.038Z,81.09
2022-08-24T04:16:10.126Z,81.10
2022-08-24T04:18:37.091Z,81.12
2022-08-24T04:21:04.196Z,81.27
2022-08-24T04:23:47.684Z,81.07
2022-08-24T04:26:43.920Z,80.97
2022-08-24T04:29:09.449Z,80.65
2022-08-24T04:31:38.049Z,80.84
2022-08-24T04:34:09.921Z,81.05
2022-08-24T04:36:36.506Z,81.03
2022-08-24T04:39:03.656Z,81.33
2022-08-24T04:41:31.324Z,81.27
2022-08-24T04:43:59.412Z,81.35
2022-08-24T04:46:26.910Z,80.96
2022-08-24T04:48:55.985Z,80.78
2022-08-24T04:51:25.024Z,80.87
2022-08-24T04:53:51.825Z,80.79
2022-08-24T04:56:26.314Z,80.88
2022-08-24T04:58:55.548Z,80.91
2022-08-24T05:01:24.664Z,80.57
2022-08-24T05:03:54.154Z,80.07
2022-08-24T05:06:23.199Z,79.99
2022-08-24T05:08:52.027Z,79.77
2022-08-24T05:11:20.710Z,79.58
2022-08-24T05:13:48.204Z,79.46
2022-08-24T05:16:17.873Z,79.05
2022-08-24T05:18:48.317Z,78.99
2022-08-24T05:21:17.795Z,78.50
2022-08-24T05:23:47.873Z,76.03
2022-08-24T05:26:26.073Z,71.29
2022-08-24T05:29:00.555Z,67.88
2022-08-24T05:31:29.865Z,64.15
2022-08-24T05:33:57.822Z,61.51
2022-08-24T05:36:30.701Z,59.81
2022-08-24T05:39:00.644Z,57.91
2022-08-24T05:41:28.488Z,56.14
2022-08-24T05:43:55.655Z,54.55
2022-08-24T05:46:22.550Z,54.14
2022-08-24T05:48:52.819Z,58.58
2022-08-24T05:51:20.790Z,61.78
2022-08-24T05:53:47.799Z,61.51
2022-08-24T05:56:17.094Z,55.72
2022-08-24T05:58:44.431Z,52.65
2022-08-24T06:01:19.091Z,49.40
2022-08-24T06:03:45.803Z,46.82
2022-08-24T06:06:13.517Z,45.38
2022-08-24T06:08:43.276Z,44.03
2022-08-24T06:11:12.890Z,42.15
2022-08-24T06:13:41.705Z,41.78
2022-08-24T06:16:22.225Z,40.73
2022-08-24T06:18:49.936Z,40.29
2022-08-24T06:21:20.204Z,39.41
2022-08-24T06:23:48.143Z,38.88
2022-08-24T06:26:33.657Z,38.52
2022-08-24T06:29:03.186Z,37.83
2022-08-24T06:31:30.008Z,36.84
2022-08-24T06:34:06.103Z,35.47
2022-08-24T06:36:32.680Z,34.89
2022-08-24T06:38:59.739Z,34.62
2022-08-24T06:41:26.652Z,35.03
2022-08-24T06:43:53.322Z,36.09
2022-08-24T06:46:32.022Z,35.37
2022-08-24T06:48:59.493Z,35.52
2022-08-24T06:51:26.029Z,36.77
2022-08-24T06:53:56.242Z,36.95
2022-08-24T06:56:23.033Z,36.46
2022-08-24T06:58:49.775Z,36.42
2022-08-24T07:01:22.953Z,37.45
2022-08-24T07:03:50.139Z,36.90
2022-08-24T07:06:18.199Z,36.76
2022-08-24T07:08:44.865Z,35.71
2022-08-24T07:11:14.905Z,34.96
2022-08-24T07:13:42.009Z,34.02
2022-08-24T07:16:10.180Z,32.27
2022-08-24T07:18:37.529Z,31.62
2022-08-24T07:21:08.135Z,30.61
2022-08-24T07:23:41.811Z,30.58
2022-08-24T07:26:20.807Z,29.97
2022-08-24T07:29:04.948Z,28.81
2022-08-24T07:31:35.549Z,28.02
2022-08-24T07:34:04.024Z,28.14
2022-08-24T07:36:30.852Z,27.78
2022-08-24T07:38:58.361Z,26.91
2022-08-24T07:44:13.700Z,26.33
2022-08-24T07:46:41.636Z,26.21
2022-08-24T07:49:29.273Z,25.52
2022-08-24T07:52:03.461Z,25.91
2022-08-24T07:54:30.047Z,26.30
2022-08-24T07:56:59.861Z,25.99
2022-08-24T07:59:26.399Z,26.07
2022-08-24T08:01:53.006Z,25.50
2022-08-24T08:04:22.108Z,25.89
2022-08-24T08:06:49.302Z,26.99
2022-08-24T08:09:16.003Z,27.03
2022-08-24T08:11:42.571Z,27.65
2022-08-24T08:14:09.200Z,27.82
2022-08-24T08:16:35.932Z,27.72
2022-08-24T08:19:12.255Z,27.63
2022-08-24T08:22:12.448Z,28.04
2022-08-24T08:24:43.856Z,27.70
2022-08-24T08:27:12.108Z,27.29
2022-08-24T08:29:43.376Z,26.39
2022-08-24T08:32:16.999Z,25.88
2022-08-24T08:34:44.859Z,26.29
2022-08-24T08:37:12.369Z,26.24
2022-08-24T08:39:40.590Z,25.76
2022-08-24T08:42:58.708Z,25.62
2022-08-24T08:45:39.619Z,25.96
2022-08-24T08:48:32.345Z,27.31
2022-08-24T08:51:04.927Z,28.13
2022-08-24T08:53:45.334Z,27.64
2022-08-24T08:56:35.901Z,27.28
2022-08-24T08:59:27.338Z,26.89
2022-08-24T09:02:11.396Z,27.51
2022-08-24T09:05:19.565Z,28.69
2022-08-24T09:08:09.009Z,29.07
2022-08-24T09:10:44.748Z,29.61
2022-08-24T09:13:35.943Z,30.25
2022-08-24T09:16:21.052Z,30.89
2022-08-24T09:19:25.999Z,30.93
2022-08-24T09:22:03.286Z,30.79
2022-08-24T09:24:51.552Z,30.52
2022-08-24T09:27:33.190Z,32.01
2022-08-24T09:30:18.585Z,31.89
2022-08-24T09:33:10.451Z,32.28
2022-08-24T09:35:58.625Z,31.63
2022-08-24T09:38:57.173Z,31.26
2022-08-24T09:41:54.059Z,31.36
2022-08-24T09:44:40.367Z,31.82
2022-08-24T09:47:40.666Z,31.96
2022-08-24T09:50:07.205Z,31.13
2022-08-24T09:52:55.307Z,31.11
2022-08-24T09:55:33.685Z,30.64
2022-08-24T09:58:22.862Z,31.48
2022-08-24T10:01:10.318Z,31.97
2022-08-24T10:04:07.368Z,32.01
2022-08-24T10:06:53.383Z,31.65
2022-08-24T10:09:52.562Z,32.04
2022-08-24T10:12:43.383Z,31.59
2022-08-24T10:15:19.044Z,31.92
2022-08-24T10:17:54.581Z,31.55
2022-08-24T10:20:29.232Z,30.77
2022-08-24T10:23:11.071Z,31.55
2022-08-24T10:25:44.320Z,31.40
2022-08-24T10:28:44.728Z,32.08
2022-08-24T10:31:39.100Z,32.01
2022-08-24T10:34:43.690Z,31.37
2022-08-24T10:37:42.382Z,31.38
2022-08-24T10:40:28.752Z,32.07
2022-08-24T10:43:31.049Z,31.80
2022-08-24T10:46:19.487Z,32.29
2022-08-24T10:49:18.789Z,32.03
2022-08-24T10:52:09.154Z,31.68
2022-08-24T10:54:39.578Z,31.37
2022-08-24T10:57:15.321Z,31.79
2022-08-24T10:59:54.009Z,32.00
2022-08-24T11:02:26.452Z,32.29
2022-08-24T11:05:01.356Z,32.62
2022-08-24T11:07:28.885Z,33.32
2022-08-24T11:10:01.830Z,33.79
2022-08-24T11:12:33.383Z,33.78
2022-08-24T11:15:19.168Z,34.36
2022-08-24T11:17:55.121Z,34.19
2022-08-24T11:20:40.269Z,34.83
2022-08-24T11:23:14.842Z,33.86
2022-08-24T11:25:53.338Z,33.57
2022-08-24T11:28:22.752Z,33.25
2022-08-24T11:30:49.418Z,32.90
2022-08-24T11:33:35.287Z,32.23
2022-08-24T11:36:02.726Z,32.27
2022-08-24T11:38:34.913Z,32.05
2022-08-24T11:41:33.367Z,31.33
2022-08-24T11:44:08.513Z,31.51
2022-08-24T11:46:57.272Z,31.52
2022-08-24T11:49:37.123Z,30.94
2022-08-24T11:52:15.977Z,30.40
2022-08-24T11:55:15.209Z,30.59
2022-08-24T11:57:55.789Z,30.42
2022-08-24T12:00:26.958Z,30.17
2022-08-24T12:03:10.546Z,30.41
2022-08-24T12:05:40.028Z,29.39
2022-08-24T12:08:31.206Z,30.17
2022-08-24T12:11:29.783Z,29.78
2022-08-24T12:14:09.894Z,29.97
2022-08-24T12:16:59.702Z,30.11
2022-08-24T12:19:31.559Z,30.25
2022-08-24T12:22:03.506Z,29.97
2022-08-24T12:24:45.687Z,30.35
2022-08-24T12:27:18.107Z,30.33
2022-08-24T12:29:51.679Z,30.50
2022-08-24T12:32:30.497Z,31.48
2022-08-24T12:35:09.131Z,30.88
2022-08-24T12:38:11.160Z,31.37
2022-08-24T12:40:48.114Z,31.28
2022-08-24T12:43:39.134Z,30.87
2022-08-24T12:46:06.949Z,31.41
2022-08-24T12:48:37.579Z,30.24
2022-08-24T12:51:32.509Z,30.30
2022-08-24T12:54:12.342Z,30.49
2022-08-24T12:56:47.936Z,29.75
2022-08-24T12:59:25.541Z,29.82
2022-08-24T13:02:08.216Z,29.22
2022-08-24T13:04:49.955Z,29.74
2022-08-24T13:07:19.502Z,29.72
2022-08-24T13:09:49.386Z,29.97
2022-08-24T13:12:43.945Z,29.69
2022-08-24T13:15:31.603Z,29.32
2022-08-24T13:18:13.976Z,29.83
2022-08-24T13:20:43.838Z,29.33
2022-08-24T13:23:16.186Z,29.72
2022-08-24T13:25:51.645Z,29.83
2022-08-24T13:28:21.021Z,29.97
2022-08-24T13:30:53.926Z,30.00
2022-08-24T13:33:42.093Z,29.34
2022-08-24T13:36:31.674Z,29.57
2022-08-24T13:39:04.898Z,30.25
2022-08-24T13:41:37.415Z,30.29
2022-08-24T13:44:22.358Z,30.23
2022-08-24T13:47:20.268Z,30.76
2022-08-24T13:50:37.875Z,31.31
2022-08-24T13:53:35.203Z,31.31
2022-08-24T13:56:28.318Z,31.58
2022-08-24T13:59:36.296Z,31.46
2022-08-24T14:02:27.628Z,31.32
2022-08-24T14:05:30.852Z,32.06
2022-08-24T14:08:10.368Z,32.24
2022-08-24T14:10:55.590Z,31.62
2022-08-24T14:13:47.909Z,31.82
2022-08-24T14:16:57.567Z,31.49
2022-08-24T14:19:53.970Z,31.12
2022-08-24T14:22:23.535Z,31.60
2022-08-24T14:25:12.447Z,31.36
2022-08-24T14:27:42.641Z,31.97
2022-08-24T14:30:20.473Z,31.99
2022-08-24T14:32:59.266Z,32.22
2022-08-24T14:35:38.287Z,31.69
2022-08-24T14:38:26.422Z,31.48
2022-08-24T14:40:52.935Z,32.10
2022-08-24T14:43:38.100Z,32.22
2022-08-24T14:46:10.446Z,31.48
2022-08-24T14:49:24.632Z,31.54
2022-08-24T14:51:51.436Z,31.41
2022-08-24T14:54:17.883Z,31.15
2022-08-24T14:56:59.856Z,30.86
2022-08-24T15:00:04.460Z,31.57
2022-08-24T15:02:55.943Z,31.47
2022-08-24T15:05:31.666Z,31.69
2022-08-24T15:08:06.176Z,31.12
2022-08-24T15:10:39.102Z,31.06
2022-08-24T15:13:27.449Z,30.95
2022-08-24T15:16:08.041Z,30.86
2022-08-24T15:18:45.545Z,31.43
2022-08-24T15:21:24.369Z,31.81
2022-08-24T15:24:33.043Z,32.19
2022-08-24T15:27:24.029Z,31.96
2022-08-24T15:30:02.908Z,31.93
2022-08-24T15:32:51.960Z,32.00
2022-08-24T15:35:32.883Z,32.28
2022-08-24T15:38:18.324Z,32.48
2022-08-24T15:40:46.404Z,32.07
2022-08-24T15:43:14.512Z,32.57
2022-08-24T15:45:49.679Z,32.20
2022-08-24T15:48:19.683Z,33.14
2022-08-24T15:50:48.544Z,32.38
2022-08-24T15:53:30.156Z,32.35
2022-08-24T15:55:57.322Z,33.24
2022-08-24T15:58:36.597Z,33.31
2022-08-24T16:01:29.545Z,33.24
2022-08-24T16:04:06.683Z,33.56
2022-08-24T16:06:33.124Z,33.53
2022-08-24T16:09:04.154Z,33.68
2022-08-24T16:11:38.459Z,33.41
2022-08-24T16:14:11.373Z,33.44
2022-08-24T16:16:43.724Z,33.19
2022-08-24T16:19:40.001Z,33.46
2022-08-24T16:22:12.611Z,33.52
2022-08-24T16:24:41.619Z,34.21
2022-08-24T16:27:08.090Z,33.96
2022-08-24T16:29:38.821Z,34.73
2022-08-24T16:32:31.993Z,34.63
2022-08-24T16:35:08.470Z,35.05
2022-08-24T16:37:35.407Z,34.55
2022-08-24T16:40:02.094Z,34.39
2022-08-24T16:42:30.380Z,34.72
2022-08-24T16:44:59.191Z,34.77
2022-08-24T16:47:28.949Z,35.92
2022-08-24T16:49:55.890Z,35.52
2022-08-24T16:52:22.804Z,35.91
2022-08-24T16:54:50.433Z,35.68
2022-08-24T16:57:20.952Z,35.78
2022-08-24T16:59:49.068Z,35.73
2022-08-24T17:02:18.271Z,35.63
2022-08-24T17:04:45.153Z,36.09
2022-08-24T17:07:15.618Z,36.30
2022-08-24T17:09:44.621Z,36.04
2022-08-24T17:12:11.641Z,36.40
2022-08-24T17:14:39.662Z,36.65
2022-08-24T17:17:10.262Z,36.61
2022-08-24T17:19:37.757Z,37.04
2022-08-24T17:22:08.895Z,37.44
2022-08-24T17:24:39.027Z,37.58
2022-08-24T17:27:06.938Z,37.83
2022-08-24T17:29:36.080Z,38.18
2022-08-24T17:32:02.949Z,38.44
2022-08-24T17:34:32.234Z,38.44
2022-08-24T17:36:59.032Z,38.79
2022-08-24T17:39:25.765Z,39.10
2022-08-24T17:41:54.046Z,39.27
2022-08-24T17:44:25.814Z,38.95
2022-08-24T17:46:55.323Z,39.40
2022-08-24T17:49:22.134Z,39.44
2022-08-24T17:51:51.020Z,39.83
2022-08-24T17:54:18.209Z,39.83
2022-08-24T17:56:50.883Z,39.77
2022-08-24T17:59:29.684Z,40.07
2022-08-24T18:01:59.887Z,40.44
2022-08-24T18:04:29.839Z,40.42
2022-08-24T18:06:58.601Z,40.89
2022-08-24T18:09:33.003Z,40.93
2022-08-24T18:12:05.527Z,41.01
2022-08-24T18:14:35.196Z,41.38
2022-08-24T18:17:04.706Z,41.21
2022-08-24T18:19:33.812Z,41.90
2022-08-24T18:22:01.911Z,41.75
2022-08-24T18:24:32.571Z,42.40
2022-08-24T18:27:18.194Z,42.20
2022-08-24T18:29:46.757Z,42.30
2022-08-24T18:32:21.515Z,42.61
2022-08-24T18:34:48.097Z,42.94
2022-08-24T18:37:15.039Z,43.28
2022-08-24T18:39:41.560Z,43.56
2022-08-24T18:42:11.497Z,43.70
2022-08-24T18:44:39.522Z,43.65
2022-08-24T18:47:07.287Z,44.23
2022-08-24T18:49:36.331Z,44.35
2022-08-24T18:52:03.700Z,44.67
2022-08-24T18:54:36.378Z,44.78
2022-08-24T18:57:07.049Z,45.17
2022-08-24T18:59:35.439Z,45.65
2022-08-24T19:02:32.874Z,45.99
2022-08-24T19:05:06.462Z,45.92
2022-08-24T19:07:39.875Z,46.59
2022-08-24T19:10:08.983Z,46.95
2022-08-24T19:12:40.409Z,47.21
2022-08-24T19:15:31.942Z,47.38
2022-08-24T19:17:58.920Z,47.55
2022-08-24T19:20:27.924Z,48.40
2022-08-24T19:23:04.973Z,48.67
2022-08-24T19:25:32.211Z,49.03
2022-08-24T19:27:58.781Z,49.13
2022-08-24T19:30:27.945Z,49.75
2022-08-24T19:32:59.320Z,50.02
2022-08-24T19:35:26.421Z,50.70
2022-08-24T19:37:54.047Z,51.53
2022-08-24T19:40:21.061Z,51.96
2022-08-24T19:42:50.953Z,52.39
2022-08-24T19:45:53.180Z,52.49
2022-08-24T19:48:19.796Z,52.77
2022-08-24T19:50:46.385Z,53.07
2022-08-24T19:53:13.468Z,53.34
2022-08-24T19:55:40.110Z,53.62
2022-08-24T19:58:23.754Z,53.49
2022-08-24T20:00:57.745Z,53.89
2022-08-24T20:03:25.010Z,53.95
2022-08-24T20:05:51.837Z,53.93
2022-08-24T20:08:19.993Z,54.66
2022-08-24T20:10:47.125Z,54.59
2022-08-24T20:13:16.244Z,54.99
2022-08-24T20:15:43.040Z,55.70
2022-08-24T20:18:09.815Z,55.50
2022-08-24T20:20:36.413Z,55.98
2022-08-24T20:23:06.348Z,56.38
2022-08-24T20:25:39.991Z,56.55
2022-08-24T20:28:28.291Z,56.77
2022-08-24T20:30:56.086Z,56.95
2022-08-24T20:33:23.847Z,57.02
2022-08-24T20:35:50.967Z,56.76
2022-08-24T20:38:20.092Z,57.19
2022-08-24T20:40:48.046Z,57.40
2022-08-24T20:43:14.654Z,57.22
2022-08-24T20:45:41.792Z,57.13
2022-08-24T20:48:12.114Z,57.63
2022-08-24T20:50:39.519Z,57.44
2022-08-24T20:53:06.433Z,57.67
2022-08-24T20:55:33.119Z,57.66
2022-08-24T20:58:03.504Z,58.14
2022-08-24T21:00:32.262Z,58.20
2022-08-24T21:02:58.858Z,58.69
2022-08-24T21:05:25.545Z,59.12
2022-08-24T21:07:52.152Z,59.46
2022-08-24T21:10:21.414Z,59.30
2022-08-24T21:12:52.613Z,59.63
2022-08-24T21:15:19.356Z,59.92
2022-08-24T21:17:45.865Z,59.98
2022-08-24T21:20:18.024Z,60.30
2022-08-24T21:22:46.170Z,60.13
2022-08-24T21:25:14.465Z,60.48
2022-08-24T21:27:44.155Z,60.99
2022-08-24T21:30:14.915Z,60.81
2022-08-24T21:33:00.328Z,61.23
2022-08-24T21:35:27.058Z,60.98
2022-08-24T21:37:53.978Z,61.18
2022-08-24T21:40:21.912Z,61.53
2022-08-24T21:42:49.108Z,61.78
2022-08-24T21:45:15.835Z,62.15
2022-08-24T21:47:42.650Z,62.28
2022-08-24T21:50:09.997Z,62.73
2022-08-24T21:52:37.255Z,62.48
2022-08-24T21:55:09.667Z,63.00
2022-08-24T21:57:40.485Z,62.99
2022-08-24T22:00:11.850Z,63.00
2022-08-24T22:02:38.988Z,63.03
2022-08-24T22:05:06.100Z,63.49
2022-08-24T22:07:32.783Z,63.20
2022-08-24T22:09:59.554Z,63.44
2022-08-24T22:12:26.180Z,63.48
2022-08-24T22:14:52.755Z,63.73
2022-08-24T22:17:19.275Z,64.08
2022-08-24T22:19:45.848Z,63.85
2022-08-24T22:22:12.376Z,63.97
2022-08-24T22:24:38.935Z,64.12
2022-08-24T22:27:05.600Z,64.46
2022-08-24T22:29:33.486Z,64.46
2022-08-24T22:32:00.108Z,64.61
2022-08-24T22:34:26.678Z,64.62
2022-08-24T22:36:56.873Z,65.08
2022-08-24T22:39:23.474Z,65.04
2022-08-24T22:41:50.021Z,64.92
2022-08-24T22:44:21.263Z,65.06
2022-08-24T22:46:54.168Z,65.37
2022-08-24T22:49:22.878Z,65.62
2022-08-24T22:51:49.722Z,65.78
2022-08-24T22:54:17.403Z,65.87
2022-08-24T22:56:47.413Z,65.65
2022-08-24T22:59:20.247Z,66.09
2022-08-24T23:01:48.794Z,66.37
2022-08-24T23:04:21.362Z,66.46
2022-08-24T23:06:48.007Z,66.69
2022-08-24T23:09:14.692Z,66.98
2022-08-24T23:11:42.303Z,66.97
2022-08-24T23:14:10.076Z,67.18
2022-08-24T23:16:38.707Z,67.43
2022-08-24T23:19:25.547Z,67.44
2022-08-24T23:21:53.785Z,67.40
2022-08-24T23:24:20.824Z,67.64
2022-08-24T23:26:50.201Z,67.65
2022-08-24T23:29:17.373Z,68.00
2022-08-24T23:31:47.356Z,67.78
2022-08-24T23:34:15.165Z,68.13
2022-08-24T23:36:43.225Z,68.13
2022-08-24T23:39:11.695Z,68.33
2022-08-24T23:41:42.536Z,68.17
2022-08-24T23:44:13.921Z,68.74
2022-08-24T23:46:41.175Z,68.63
2022-08-24T23:49:08.786Z,69.12
2022-08-24T23:51:36.437Z,69.13
2022-08-24T23:54:03.657Z,69.27
2022-08-24T23:56:33.255Z,69.46
2022-08-24T23:59:03.404Z,69.43
